createdAt,value
2018-04-27T00:01:04.009Z,98516.95
2018-04-27T00:03:31.594Z,98520.09
2018-04-27T00:05:59.141Z,98516.31
2018-04-27T00:08:26.741Z,98512.84
2018-04-27T00:10:54.329Z,98510.47
2018-04-27T00:13:21.864Z,98513.52
2018-04-27T00:15:49.393Z,98518.47
2018-04-27T00:18:16.933Z,98523.95
2018-04-27T00:20:44.470Z,98524.76
2018-04-27T00:23:11.996Z,98524.02
2018-04-27T00:25:39.521Z,98524.42
2018-04-27T00:28:07.192Z,98520.03
2018-04-27T00:30:34.708Z,98517.61
2018-04-27T00:33:02.239Z,98518.90
2018-04-27T00:35:29.789Z,98519.23
2018-04-27T00:37:57.319Z,98513.58
2018-04-27T00:40:24.954Z,98506.64
2018-04-27T00:42:52.525Z,98508.00
2018-04-27T00:45:20.041Z,98500.72
2018-04-27T00:47:47.561Z,98498.24
2018-04-27T00:50:15.189Z,98490.30
2018-04-27T00:52:54.633Z,98490.81
2018-04-27T00:55:22.180Z,98486.53
2018-04-27T00:57:49.741Z,98488.53
2018-04-27T01:00:17.264Z,98492.45
2018-04-27T01:02:44.816Z,98483.07
2018-04-27T01:05:12.350Z,98483.17
2018-04-27T01:07:39.952Z,98485.36
2018-04-27T01:10:07.695Z,98480.59
2018-04-27T01:12:35.250Z,98482.94
2018-04-27T01:15:02.784Z,98476.58
2018-04-27T01:17:30.335Z,98480.10
2018-04-27T01:19:57.896Z,98484.94
2018-04-27T01:22:25.489Z,98480.38
2018-04-27T01:24:53.070Z,98484.47
2018-04-27T01:27:20.610Z,98479.04
2018-04-27T01:29:48.155Z,98474.65
2018-04-27T01:32:15.857Z,98476.86
2018-04-27T01:40:32.875Z,98467.38
2018-04-27T01:43:22.198Z,98465.92
2018-04-27T01:54:25.180Z,98454.27
2018-04-27T02:53:57.208Z,98380.17
2018-04-27T02:59:15.336Z,98378.58
2018-04-27T03:04:33.550Z,98366.68
2018-04-27T03:29:30.062Z,98342.30
2018-04-27T03:31:57.570Z,98349.77
2018-04-27T03:34:25.126Z,98348.23
2018-04-27T03:36:52.667Z,98347.13
2018-04-27T03:39:20.197Z,98351.09
2018-04-27T03:41:47.715Z,98343.92
2018-04-27T03:44:15.334Z,98344.36
2018-04-27T03:46:42.855Z,98340.03
2018-04-27T03:49:10.401Z,98333.00
2018-04-27T03:51:37.922Z,98328.59
2018-04-27T03:54:05.446Z,98337.15
2018-04-27T03:56:32.970Z,98326.38
2018-04-27T03:59:00.491Z,98324.88
2018-04-27T04:01:39.870Z,98317.23
2018-04-27T04:07:06.448Z,98305.84
2018-04-27T04:09:34.177Z,98303.63
2018-04-27T04:12:01.834Z,98287.99
2018-04-27T04:14:29.343Z,98290.21
2018-04-27T04:16:56.856Z,98290.22
2018-04-27T04:19:24.356Z,98283.66
2018-04-27T04:21:51.870Z,98283.42
2018-04-27T04:24:19.404Z,98274.23
2018-04-27T04:26:46.899Z,98274.13
2018-04-27T04:29:14.437Z,98272.34
2018-04-27T04:31:42.101Z,98273.16
2018-04-27T04:34:09.641Z,98271.63
2018-04-27T04:36:37.179Z,98271.45
2018-04-27T04:39:04.713Z,98275.61
2018-04-27T04:41:32.233Z,98271.66
2018-04-27T04:43:59.754Z,98270.07
2018-04-27T04:46:27.268Z,98272.83
2018-04-27T04:48:54.777Z,98277.77
2018-04-27T04:51:22.314Z,98266.23
2018-04-27T04:53:49.932Z,98268.25
2018-04-27T04:56:17.442Z,98261.63
2018-04-27T04:58:44.967Z,98262.30
2018-04-27T05:01:12.638Z,98261.06
2018-04-27T05:03:40.175Z,98262.61
2018-04-27T05:06:07.668Z,98252.98
2018-04-27T05:08:35.269Z,98259.98
2018-04-27T05:11:02.812Z,98261.30
2018-04-27T05:13:30.320Z,98263.59
2018-04-27T05:15:58.133Z,98262.23
2018-04-27T05:21:19.918Z,98264.85
2018-04-27T05:23:47.433Z,98260.55
2018-04-27T05:26:15.027Z,98249.88
2018-04-27T05:28:42.537Z,98236.69
2018-04-27T05:31:22.091Z,98244.03
2018-04-27T05:33:49.606Z,98237.80
2018-04-27T05:36:17.155Z,98236.83
2018-04-27T05:38:44.843Z,98237.84
2018-04-27T05:41:12.379Z,98237.83
2018-04-27T05:43:39.920Z,98235.14
2018-04-27T05:46:07.520Z,98238.06
2018-04-27T05:48:35.109Z,98236.77
2018-04-27T05:51:02.654Z,98232.91
2018-04-27T05:53:30.184Z,98231.84
2018-04-27T05:55:58.310Z,98234.54
2018-04-27T05:58:25.816Z,98229.59
2018-04-27T06:00:53.325Z,98229.13
2018-04-27T06:03:20.994Z,98233.25
2018-04-27T06:05:48.685Z,98225.42
2018-04-27T06:08:16.229Z,98226.89
2018-04-27T06:10:43.812Z,98218.08
2018-04-27T06:13:11.338Z,98207.31
2018-04-27T06:15:38.872Z,98206.53
2018-04-27T06:18:06.476Z,98207.69
2018-04-27T06:20:34.044Z,98206.17
2018-04-27T06:23:01.722Z,98206.20
2018-04-27T06:25:29.228Z,98194.03
2018-04-27T06:27:56.761Z,98191.29
2018-04-27T06:30:24.302Z,98182.15
2018-04-27T06:32:51.940Z,98177.84
2018-04-27T06:35:19.474Z,98182.86
2018-04-27T06:37:47.025Z,98179.95
2018-04-27T06:40:14.520Z,98176.48
2018-04-27T06:42:42.018Z,98174.95
2018-04-27T06:45:09.526Z,98161.77
2018-04-27T06:47:37.051Z,98160.89
2018-04-27T06:50:04.559Z,98164.98
2018-04-27T06:52:32.106Z,98157.30
2018-04-27T06:55:00.623Z,98154.89
2018-04-27T06:57:28.145Z,98138.09
2018-04-27T06:59:55.677Z,98136.84
2018-04-27T07:02:24.673Z,98138.89
2018-04-27T07:04:52.561Z,98130.06
2018-04-27T07:07:20.099Z,98129.08
2018-04-27T07:09:47.611Z,98126.00
2018-04-27T07:12:15.141Z,98124.68
2018-04-27T07:14:42.660Z,98119.78
2018-04-27T07:17:10.203Z,98112.63
2018-04-27T07:19:37.761Z,98109.67
2018-04-27T07:22:05.259Z,98104.28
2018-04-27T07:24:32.757Z,98103.33
2018-04-27T07:27:00.260Z,98102.76
2018-04-27T07:29:27.874Z,98095.09
2018-04-27T07:31:55.380Z,98093.68
2018-04-27T07:34:22.909Z,98095.08
2018-04-27T07:36:50.463Z,98092.25
2018-04-27T07:39:17.972Z,98079.77
2018-04-27T07:41:45.506Z,98077.95
2018-04-27T07:44:13.009Z,98071.19
2018-04-27T07:46:40.631Z,98074.08
2018-04-27T07:49:08.189Z,98072.47
2018-04-27T07:51:35.726Z,98068.52
2018-04-27T07:54:03.241Z,98063.38
2018-04-27T07:56:30.853Z,98062.09
2018-04-27T07:58:58.395Z,98062.70
2018-04-27T08:01:25.925Z,98053.78
2018-04-27T08:03:53.514Z,98056.80
2018-04-27T08:08:54.830Z,98043.92
2018-04-27T08:11:22.404Z,98040.00
2018-04-27T08:13:50.112Z,98043.69
2018-04-27T08:16:17.741Z,98035.80
2018-04-27T08:18:45.258Z,98028.69
2018-04-27T08:21:12.787Z,98022.88
2018-04-27T08:23:40.401Z,98030.62
2018-04-27T08:26:07.950Z,98019.53
2018-04-27T08:28:35.536Z,98015.33
2018-04-27T08:31:03.056Z,98005.52
2018-04-27T08:33:30.560Z,98004.19
2018-04-27T08:35:58.114Z,97996.36
2018-04-27T08:38:25.669Z,98000.09
2018-04-27T08:40:53.203Z,97998.76
2018-04-27T08:43:20.723Z,97996.97
2018-04-27T08:45:48.233Z,97983.94
2018-04-27T08:48:15.729Z,97987.78
2018-04-27T08:50:43.215Z,97981.70
2018-04-27T08:53:10.743Z,97977.53
2018-04-27T08:55:38.277Z,97976.08
2018-04-27T08:58:10.255Z,97971.89
2018-04-27T09:00:37.787Z,97972.31
2018-04-27T09:03:05.337Z,97969.36
2018-04-27T09:05:32.931Z,97963.20
2018-04-27T09:08:00.434Z,97956.42
2018-04-27T09:10:27.963Z,97955.80
2018-04-27T09:12:55.476Z,97947.78
2018-04-27T09:15:23.052Z,97942.73
2018-04-27T09:17:50.618Z,97937.00
2018-04-27T09:20:18.145Z,97938.62
2018-04-27T09:22:45.656Z,97928.72
2018-04-27T09:25:13.310Z,97928.41
2018-04-27T09:27:40.805Z,97924.75
2018-04-27T09:30:08.314Z,97921.63
2018-04-27T09:32:35.925Z,97920.80
2018-04-27T09:35:03.441Z,97917.76
2018-04-27T09:37:30.964Z,97914.69
2018-04-27T09:39:58.481Z,97903.60
2018-04-27T09:42:26.023Z,97903.09
2018-04-27T09:44:53.639Z,97896.45
2018-04-27T09:47:21.162Z,97895.56
2018-04-27T09:49:48.696Z,97894.67
2018-04-27T09:52:16.378Z,97884.23
2018-04-27T09:54:43.899Z,97888.53
2018-04-27T09:57:11.394Z,97881.69
2018-04-27T09:59:38.932Z,97877.88
2018-04-27T10:02:06.438Z,97862.61
2018-04-27T10:04:33.978Z,97869.95
2018-04-27T10:07:01.503Z,97874.73
2018-04-27T10:09:29.031Z,97869.95
2018-04-27T10:11:56.555Z,97862.70
2018-04-27T10:14:24.056Z,97849.66
2018-04-27T10:16:51.580Z,97854.91
2018-04-27T10:19:19.286Z,97859.16
2018-04-27T10:21:46.809Z,97862.38
2018-04-27T10:24:14.336Z,97864.62
2018-04-27T10:26:41.857Z,97854.05
2018-04-27T10:29:09.376Z,97858.60
2018-04-27T10:31:36.918Z,97855.03
2018-04-27T10:34:04.529Z,97845.91
2018-04-27T10:36:32.124Z,97847.98
2018-04-27T10:38:59.666Z,97845.86
2018-04-27T10:41:27.187Z,97844.84
2018-04-27T10:43:54.712Z,97840.47
2018-04-27T10:46:24.773Z,97828.38
2018-04-27T10:48:52.305Z,97829.45
2018-04-27T10:51:19.869Z,97822.16
2018-04-27T10:53:47.524Z,97803.02
2018-04-27T10:56:15.065Z,97806.95
2018-04-27T10:58:44.396Z,97797.00
2018-04-27T11:01:12.043Z,97793.14
2018-04-27T11:03:39.785Z,97795.53
2018-04-27T11:06:07.295Z,97792.31
2018-04-27T11:08:34.861Z,97784.89
2018-04-27T11:11:02.420Z,97773.83
2018-04-27T11:16:02.702Z,97772.03
2018-04-27T11:18:45.544Z,97771.70
2018-04-27T11:21:17.729Z,97754.09
2018-04-27T11:23:50.287Z,97752.39
2018-04-27T11:29:13.996Z,97732.80
2018-04-27T11:40:25.901Z,97717.78
2018-04-27T11:42:58.510Z,97698.38
2018-04-27T12:08:35.082Z,97672.06
2018-04-27T12:11:02.639Z,97672.31
2018-04-27T12:13:30.229Z,97677.42
2018-04-27T12:15:57.821Z,97679.49
2018-04-27T12:18:25.401Z,97684.41
2018-04-27T12:20:52.945Z,97682.97
2018-04-27T12:23:20.519Z,97681.33
2018-04-27T12:25:48.090Z,97683.08
2018-04-27T12:28:15.583Z,97680.88
2018-04-27T12:30:43.197Z,97683.78
2018-04-27T12:33:10.806Z,97680.59
2018-04-27T12:35:38.347Z,97674.11
2018-04-27T12:38:05.884Z,97662.72
2018-04-27T12:40:33.439Z,97665.62
2018-04-27T12:43:00.925Z,97659.38
2018-04-27T12:45:28.499Z,97655.89
2018-04-27T12:47:56.120Z,97662.97
2018-04-27T12:50:23.704Z,97655.09
2018-04-27T12:52:51.291Z,97655.00
2018-04-27T12:55:18.919Z,97663.52
2018-04-27T12:57:46.563Z,97654.87
2018-04-27T13:00:14.253Z,97648.28
2018-04-27T13:02:41.969Z,97642.19
2018-04-27T13:05:09.738Z,97623.55
2018-04-27T13:07:37.253Z,97620.72
2018-04-27T13:10:04.820Z,97624.84
2018-04-27T13:12:32.351Z,97617.05
2018-04-27T13:14:59.890Z,97616.16
2018-04-27T13:17:28.567Z,97609.94
2018-04-27T13:19:56.228Z,97612.03
2018-04-27T13:22:23.743Z,97610.77
2018-04-27T13:24:51.270Z,97603.53
2018-04-27T13:27:18.944Z,97597.97
2018-04-27T13:29:46.525Z,97611.27
2018-04-27T13:32:14.059Z,97616.92
2018-04-27T13:34:41.638Z,97617.30
2018-04-27T13:37:09.155Z,97616.26
2018-04-27T13:39:36.746Z,97615.63
2018-04-27T13:42:04.243Z,97608.00
2018-04-27T13:44:31.772Z,97609.29
2018-04-27T13:46:59.313Z,97609.03
2018-04-27T13:49:26.947Z,97609.89
2018-04-27T13:51:54.548Z,97603.66
2018-04-27T13:54:22.112Z,97603.68
2018-04-27T13:56:49.871Z,97600.41
2018-04-27T13:59:17.422Z,97602.10
2018-04-27T14:01:44.953Z,97594.73
2018-04-27T14:04:12.464Z,97598.38
2018-04-27T14:06:40.044Z,97599.40
2018-04-27T14:09:07.680Z,97588.91
2018-04-27T14:11:35.336Z,97585.87
2018-04-27T14:14:02.868Z,97577.16
2018-04-27T14:16:30.537Z,97573.03
2018-04-27T14:18:58.057Z,97569.70
2018-04-27T14:21:25.669Z,97555.53
2018-04-27T14:23:53.138Z,97549.11
2018-04-27T14:26:20.674Z,97547.48
2018-04-27T14:28:48.217Z,97541.02
2018-04-27T14:31:15.807Z,97536.23
2018-04-27T14:33:43.394Z,97540.24
2018-04-27T14:36:10.924Z,97538.24
2018-04-27T14:38:38.480Z,97530.48
2018-04-27T14:41:06.091Z,97527.41
2018-04-27T14:43:33.595Z,97521.33
2018-04-27T14:46:01.079Z,97513.63
2018-04-27T14:48:28.802Z,97511.05
2018-04-27T14:50:56.305Z,97505.91
2018-04-27T14:53:23.848Z,97504.21
2018-04-27T14:55:51.338Z,97496.38
2018-04-27T14:58:18.901Z,97489.36
2018-04-27T15:00:46.508Z,97486.41
2018-04-27T15:03:14.040Z,97483.72
2018-04-27T15:05:41.947Z,97480.30
2018-04-27T15:08:09.676Z,97479.28
2018-04-27T15:10:37.497Z,97480.88
2018-04-27T15:13:04.989Z,97484.81
2018-04-27T15:15:32.486Z,97483.77
2018-04-27T15:18:00.076Z,97478.94
2018-04-27T15:20:28.256Z,97468.02
2018-04-27T15:22:55.770Z,97465.94
2018-04-27T15:25:23.812Z,97463.28
2018-04-27T15:27:51.732Z,97462.25
2018-04-27T15:30:19.239Z,97457.18
2018-04-27T15:32:46.771Z,97449.50
2018-04-27T15:35:14.300Z,97445.58
2018-04-27T15:37:41.809Z,97449.91
2018-04-27T15:40:09.477Z,97449.96
2018-04-27T15:42:37.106Z,97449.56
2018-04-27T15:45:04.794Z,97449.05
2018-04-27T15:47:32.611Z,97453.66
2018-04-27T15:50:00.229Z,97454.81
2018-04-27T15:52:29.323Z,97450.33
2018-04-27T15:54:57.102Z,97445.55
2018-04-27T15:57:24.689Z,97445.46
2018-04-27T15:59:52.227Z,97442.16
2018-04-27T16:02:19.828Z,97441.95
2018-04-27T16:04:47.354Z,97439.44
2018-04-27T16:07:15.052Z,97447.39
2018-04-27T16:09:42.782Z,97441.93
2018-04-27T16:12:10.484Z,97435.57
2018-04-27T16:14:38.221Z,97424.61
2018-04-27T16:17:05.763Z,97423.47
2018-04-27T16:19:33.571Z,97422.62
2018-04-27T16:22:01.432Z,97416.30
2018-04-27T16:24:29.130Z,97418.74
2018-04-27T16:26:56.763Z,97419.38
2018-04-27T16:29:24.506Z,97419.72
2018-04-27T16:31:52.589Z,97415.58
2018-04-27T16:34:20.268Z,97418.64
2018-04-27T16:36:47.768Z,97420.11
2018-04-27T16:39:15.317Z,97420.66
2018-04-27T16:41:42.880Z,97421.45
2018-04-27T16:44:10.415Z,97418.83
2018-04-27T16:46:37.996Z,97423.95
2018-04-27T16:49:05.464Z,97419.55
2018-04-27T16:51:33.047Z,97415.20
2018-04-27T16:54:00.952Z,97415.94
2018-04-27T16:56:28.479Z,97424.53
2018-04-27T16:58:56.033Z,97424.39
2018-04-27T17:01:23.672Z,97423.98
2018-04-27T17:03:51.410Z,97417.68
2018-04-27T17:06:18.929Z,97411.63
2018-04-27T17:08:46.450Z,97411.50
2018-04-27T17:11:14.104Z,97412.05
2018-04-27T17:13:41.666Z,97417.10
2018-04-27T17:16:09.217Z,97414.21
2018-04-27T17:18:36.767Z,97408.25
2018-04-27T17:21:04.273Z,97415.91
2018-04-27T17:23:31.785Z,97415.63
2018-04-27T17:25:59.305Z,97426.67
2018-04-27T17:28:26.838Z,97419.02
2018-04-27T17:30:54.415Z,97416.45
2018-04-27T17:33:22.020Z,97424.55
2018-04-27T17:35:49.771Z,97430.20
2018-04-27T17:38:17.338Z,97439.30
2018-04-27T17:40:44.885Z,97439.17
2018-04-27T17:43:12.414Z,97434.52
2018-04-27T17:45:39.929Z,97442.66
2018-04-27T17:48:07.482Z,97444.59
2018-04-27T17:50:34.970Z,97438.89
2018-04-27T17:53:02.587Z,97446.41
2018-04-27T17:55:30.099Z,97449.22
2018-04-27T17:57:57.652Z,97451.56
2018-04-27T18:00:25.204Z,97461.41
2018-04-27T18:02:52.743Z,97465.86
2018-04-27T18:05:20.254Z,97459.80
2018-04-27T18:07:47.761Z,97473.58
2018-04-27T18:10:15.283Z,97477.37
2018-04-27T18:12:42.905Z,97479.63
2018-04-27T18:15:10.401Z,97482.31
2018-04-27T18:17:38.064Z,97488.25
2018-04-27T18:20:05.678Z,97481.73
2018-04-27T18:22:33.258Z,97498.78
2018-04-27T18:25:00.770Z,97496.02
2018-04-27T18:27:28.279Z,97498.86
2018-04-27T18:29:55.989Z,97504.17
2018-04-27T18:32:23.646Z,97503.79
2018-04-27T18:34:51.204Z,97506.40
2018-04-27T18:37:18.746Z,97506.77
2018-04-27T18:39:46.317Z,97514.66
2018-04-27T18:42:13.905Z,97522.58
2018-04-27T18:44:41.814Z,97519.70
2018-04-27T18:47:09.294Z,97526.14
2018-04-27T18:49:36.936Z,97533.48
2018-04-27T18:52:04.465Z,97533.89
2018-04-27T18:54:32.029Z,97535.58
2018-04-27T19:00:03.779Z,97552.80
2018-04-27T19:02:31.386Z,97559.45
2018-04-27T19:04:58.915Z,97565.93
2018-04-27T19:07:27.095Z,97564.75
2018-04-27T19:09:54.960Z,97566.81
2018-04-27T19:12:24.916Z,97572.59
2018-04-27T19:14:52.495Z,97579.28
2018-04-27T19:17:19.996Z,97575.67
2018-04-27T19:19:47.572Z,97579.20
2018-04-27T19:22:20.725Z,97588.10
2018-04-27T19:24:48.236Z,97585.11
2018-04-27T19:27:15.756Z,97589.99
2018-04-27T19:29:43.524Z,97593.61
2018-04-27T19:32:12.160Z,97597.73
2018-04-27T19:34:40.060Z,97606.31
2018-04-27T19:37:07.692Z,97604.66
2018-04-27T19:39:35.287Z,97607.95
2018-04-27T19:42:02.831Z,97610.92
2018-04-27T19:44:30.431Z,97609.91
2018-04-27T19:46:57.984Z,97606.31
2018-04-27T19:49:25.595Z,97618.75
2018-04-27T19:51:53.144Z,97621.81
2018-04-27T19:54:20.730Z,97623.41
2018-04-27T19:56:48.259Z,97628.11
2018-04-27T19:59:15.859Z,97629.38
2018-04-27T20:01:43.472Z,97629.17
2018-04-27T20:04:11.041Z,97636.88
2018-04-27T20:06:38.621Z,97636.48
2018-04-27T20:09:06.301Z,97637.86
2018-04-27T20:11:33.833Z,97638.96
2018-04-27T20:14:01.626Z,97642.19
2018-04-27T20:16:38.284Z,97643.52
2018-04-27T20:19:07.302Z,97641.61
2018-04-27T20:21:34.926Z,97644.91
2018-04-27T20:24:07.599Z,97644.11
2018-04-27T20:26:35.179Z,97651.08
2018-04-27T20:29:02.723Z,97655.78
2018-04-27T20:31:30.288Z,97655.49
2018-04-27T20:33:57.969Z,97659.28
2018-04-27T20:36:25.511Z,97664.30
2018-04-27T20:38:53.071Z,97666.15
2018-04-27T20:41:20.676Z,97668.77
2018-04-27T20:43:49.049Z,97677.27
2018-04-27T20:46:20.457Z,97682.16
2018-04-27T20:48:48.010Z,97690.94
2018-04-27T20:51:15.710Z,97699.69
2018-04-27T20:53:58.180Z,97698.19
2018-04-27T20:56:25.773Z,97702.73
2018-04-27T20:58:53.438Z,97716.19
2018-04-27T21:01:21.060Z,97722.06
2018-04-27T21:03:48.569Z,97719.97
2018-04-27T21:06:16.853Z,97725.38
2018-04-27T21:08:44.383Z,97722.80
2018-04-27T21:11:11.914Z,97737.27
2018-04-27T21:13:42.449Z,97740.38
2018-04-27T21:16:10.025Z,97738.88
2018-04-27T21:18:37.565Z,97741.35
2018-04-27T21:21:05.080Z,97737.84
2018-04-27T21:23:32.635Z,97744.42
2018-04-27T21:26:00.168Z,97734.24
2018-04-27T21:28:46.526Z,97740.20
2018-04-27T21:31:14.073Z,97745.43
2018-04-27T21:33:42.426Z,97741.00
2018-04-27T21:36:09.967Z,97747.76
2018-04-27T21:38:46.746Z,97744.93
2018-04-27T21:41:14.992Z,97740.55
2018-04-27T21:43:42.519Z,97744.60
2018-04-27T21:46:10.069Z,97745.02
2018-04-27T21:48:37.573Z,97736.64
2018-04-27T21:51:05.131Z,97729.52
2018-04-27T21:53:32.764Z,97733.34
2018-04-27T21:56:00.276Z,97735.77
2018-04-27T21:58:27.802Z,97744.10
2018-04-27T22:00:55.401Z,97743.83
2018-04-27T22:03:23.853Z,97752.92
2018-04-27T22:06:16.336Z,97766.03
2018-04-27T22:08:55.235Z,97766.78
2018-04-27T22:11:24.648Z,97770.53
2018-04-27T22:13:54.103Z,97774.44
2018-04-27T22:16:24.240Z,97782.16
2018-04-27T22:18:51.877Z,97786.64
2018-04-27T22:21:19.495Z,97794.05
2018-04-27T22:23:47.078Z,97800.44
2018-04-27T22:26:17.324Z,97805.21
2018-04-27T22:28:50.891Z,97808.53
2018-04-27T22:31:20.203Z,97807.30
2018-04-27T22:33:47.826Z,97819.06
2018-04-27T22:39:28.378Z,97818.16
2018-04-27T22:41:56.109Z,97830.81
2018-04-27T22:44:26.714Z,97838.58
2018-04-27T22:46:54.244Z,97844.86
2018-04-27T22:49:21.793Z,97842.77
2018-04-27T22:51:49.331Z,97852.23
2018-04-27T22:57:29.137Z,97854.80
2018-04-27T23:00:04.582Z,97852.56
2018-04-27T23:02:32.168Z,97864.87
2018-04-27T23:05:01.268Z,97860.83
2018-04-27T23:07:41.337Z,97855.92
2018-04-27T23:10:08.910Z,97867.66
2018-04-27T23:12:39.324Z,97874.83
2018-04-27T23:15:06.851Z,97868.65
2018-04-27T23:17:34.428Z,97880.11
2018-04-27T23:20:22.602Z,97874.41
2018-04-27T23:22:52.931Z,97878.61
2018-04-27T23:25:21.240Z,97881.72
2018-04-27T23:27:48.764Z,97885.33
2018-04-27T23:30:23.150Z,97889.22
2018-04-27T23:32:50.658Z,97885.75
2018-04-27T23:35:19.035Z,97881.25
2018-04-27T23:37:46.562Z,97882.34
2018-04-27T23:40:14.104Z,97878.46
2018-04-27T23:42:42.415Z,97884.14
2018-04-27T23:45:10.597Z,97879.25
2018-04-27T23:47:38.169Z,97884.26
2018-04-27T23:50:05.689Z,97882.03
2018-04-27T23:52:33.268Z,97882.36
2018-04-27T23:55:00.803Z,97884.31
2018-04-27T23:57:28.372Z,97888.38
2018-04-27T23:59:58.678Z,97884.69
